Whitburn, United Kingdom
Current Conditions -  °F | °C
As of 10:20 PM on Monday 24 Nov 2014 (Local Time) from EGPH Reporting Station
Broken Clouds Broken Clouds  
Wind Chill: 45°   Ceiling: 1700
Heat Index: 45°   Visibility: 6mi
Dew Point: 39°   Wind: 3mph
Humidity: 81%   Direction: NA
Pressure: 30.24"   Gusts: NA
Location:  55.87°N, 3.68°W
Report Text: EGPH 242220Z VRB03KT 9999 BKN017 07/04 Q1024
Loading
Personal Weather Stations






























Interactive Weather Map New forecast layout! Learn more

10-Day Weather Forecast

Advertisements
Track Severe Weather on mobile